sensor_id;sensor_type;location;lat;lon;timestamp;pressure;altitude;pressure_sealevel;temperature;humidity
13732;BME280;6937;56.096;12.664;2022-11-20T00:01:30;101135.13;;;-0.24;100.00
13732;BME280;6937;56.096;12.664;2022-11-20T00:03:57;101151.75;;;-0.24;100.00
13732;BME280;6937;56.096;12.664;2022-11-20T00:06:23;101150.06;;;-0.26;100.00
13732;BME280;6937;56.096;12.664;2022-11-20T00:08:49;101140.53;;;-0.32;100.00
13732;BME280;6937;56.096;12.664;2022-11-20T00:11:18;101130.13;;;-0.36;100.00
13732;BME280;6937;56.096;12.664;2022-11-20T00:13:45;101112.94;;;-0.50;100.00
13732;BME280;6937;56.096;12.664;2022-11-20T00:16:12;101141.59;;;-0.40;100.00
13732;BME280;6937;56.096;12.664;2022-11-20T00:18:38;101139.91;;;-0.43;100.00
13732;BME280;6937;56.096;12.664;2022-11-20T00:21:11;101128.69;;;-0.51;100.00
13732;BME280;6937;56.096;12.664;2022-11-20T00:23:36;101152.25;;;-0.46;100.00
13732;BME280;6937;56.096;12.664;2022-11-20T00:26:06;101153.19;;;-0.51;100.00
13732;BME280;6937;56.096;12.664;2022-11-20T00:28:33;101150.66;;;-0.55;100.00
13732;BME280;6937;56.096;12.664;2022-11-20T00:31:06;101134.31;;;-0.68;100.00
13732;BME280;6937;56.096;12.664;2022-11-20T00:33:32;101158.53;;;-0.55;100.00
13732;BME280;6937;56.096;12.664;2022-11-20T00:36:02;101152.50;;;-0.59;100.00
13732;BME280;6937;56.096;12.664;2022-11-20T00:38:29;101136.97;;;-0.71;100.00
13732;BME280;6937;56.096;12.664;2022-11-20T00:40:56;101151.66;;;-0.61;100.00
13732;BME280;6937;56.096;12.664;2022-11-20T00:43:22;101156.94;;;-0.62;100.00
13732;BME280;6937;56.096;12.664;2022-11-20T00:45:47;101150.00;;;-0.66;100.00
13732;BME280;6937;56.096;12.664;2022-11-20T00:48:12;101156.16;;;-0.67;100.00
13732;BME280;6937;56.096;12.664;2022-11-20T00:50:38;101166.66;;;-0.67;100.00
13732;BME280;6937;56.096;12.664;2022-11-20T00:53:04;101165.75;;;-0.66;100.00
13732;BME280;6937;56.096;12.664;2022-11-20T00:55:29;101140.63;;;-0.78;100.00
13732;BME280;6937;56.096;12.664;2022-11-20T00:57:54;101159.75;;;-0.71;100.00
13732;BME280;6937;56.096;12.664;2022-11-20T01:00:20;101157.25;;;-0.77;100.00
13732;BME280;6937;56.096;12.664;2022-11-20T01:02:45;101160.66;;;-0.74;100.00
13732;BME280;6937;56.096;12.664;2022-11-20T01:05:11;101159.00;;;-0.78;100.00
13732;BME280;6937;56.096;12.664;2022-11-20T01:07:36;101162.56;;;-0.80;100.00
13732;BME280;6937;56.096;12.664;2022-11-20T01:10:01;101160.00;;;-0.85;100.00
13732;BME280;6937;56.096;12.664;2022-11-20T01:12:27;101162.69;;;-0.86;100.00
13732;BME280;6937;56.096;12.664;2022-11-20T01:14:52;101156.66;;;-0.93;100.00
13732;BME280;6937;56.096;12.664;2022-11-20T01:17:17;101157.47;;;-0.89;100.00
13732;BME280;6937;56.096;12.664;2022-11-20T01:19:43;101164.47;;;-0.88;100.00
13732;BME280;6937;56.096;12.664;2022-11-20T01:22:09;101168.91;;;-0.92;100.00
13732;BME280;6937;56.096;12.664;2022-11-20T01:24:34;101174.22;;;-0.95;100.00
13732;BME280;6937;56.096;12.664;2022-11-20T01:26:59;101181.19;;;-0.94;100.00
13732;BME280;6937;56.096;12.664;2022-11-20T01:29:25;101182.03;;;-0.93;100.00
13732;BME280;6937;56.096;12.664;2022-11-20T01:31:50;101179.47;;;-0.95;100.00
13732;BME280;6937;56.096;12.664;2022-11-20T01:34:18;101151.78;;;-1.11;100.00
13732;BME280;6937;56.096;12.664;2022-11-20T01:36:45;101173.47;;;-1.03;100.00
13732;BME280;6937;56.096;12.664;2022-11-20T01:39:13;101189.09;;;-0.97;100.00
13732;BME280;6937;56.096;12.664;2022-11-20T01:41:39;101174.50;;;-1.10;100.00
13732;BME280;6937;56.096;12.664;2022-11-20T01:44:45;101179.69;;;-1.09;100.00
13732;BME280;6937;56.096;12.664;2022-11-20T01:47:14;101165.78;;;-1.12;100.00
13732;BME280;6937;56.096;12.664;2022-11-20T01:50:14;101161.47;;;-1.16;100.00
13732;BME280;6937;56.096;12.664;2022-11-20T01:52:50;101184.00;;;-1.05;100.00
13732;BME280;6937;56.096;12.664;2022-11-20T01:55:24;101151.09;;;-1.21;100.00
13732;BME280;6937;56.096;12.664;2022-11-20T01:57:50;101160.50;;;-1.09;100.00
13732;BME280;6937;56.096;12.664;2022-11-20T02:00:18;101156.94;;;-1.08;100.00
13732;BME280;6937;56.096;12.664;2022-11-20T02:02:49;101131.81;;;-1.20;100.00
13732;BME280;6937;56.096;12.664;2022-11-20T02:05:23;101133.63;;;-1.22;100.00
13732;BME280;6937;56.096;12.664;2022-11-20T02:07:50;101097.25;;;-1.40;100.00
13732;BME280;6937;56.096;12.664;2022-11-20T02:10:16;101118.03;;;-1.31;100.00
13732;BME280;6937;56.096;12.664;2022-11-20T02:12:41;101138.13;;;-1.28;100.00
13732;BME280;6937;56.096;12.664;2022-11-20T02:15:25;101127.69;;;-1.31;100.00
13732;BME280;6937;56.096;12.664;2022-11-20T02:17:51;101140.81;;;-1.31;100.00
13732;BME280;6937;56.096;12.664;2022-11-20T02:20:16;101144.31;;;-1.32;100.00
13732;BME280;6937;56.096;12.664;2022-11-20T02:22:50;101135.59;;;-1.34;100.00
13732;BME280;6937;56.096;12.664;2022-11-20T02:25:19;101120.09;;;-1.47;100.00
13732;BME280;6937;56.096;12.664;2022-11-20T02:27:45;101126.16;;;-1.44;100.00
13732;BME280;6937;56.096;12.664;2022-11-20T02:30:11;101133.19;;;-1.47;100.00
13732;BME280;6937;56.096;12.664;2022-11-20T02:32:37;101127.16;;;-1.50;100.00
13732;BME280;6937;56.096;12.664;2022-11-20T02:37:56;101140.28;;;-1.52;100.00
13732;BME280;6937;56.096;12.664;2022-11-20T02:40:22;101122.13;;;-1.64;100.00
13732;BME280;6937;56.096;12.664;2022-11-20T02:42:47;101144.66;;;-1.54;100.00
13732;BME280;6937;56.096;12.664;2022-11-20T02:45:13;101107.53;;;-1.77;100.00
13732;BME280;6937;56.096;12.664;2022-11-20T02:47:38;101151.69;;;-1.54;100.00
13732;BME280;6937;56.096;12.664;2022-11-20T02:50:05;101124.81;;;-1.67;100.00
13732;BME280;6937;56.096;12.664;2022-11-20T02:52:30;101143.84;;;-1.56;100.00
13732;BME280;6937;56.096;12.664;2022-11-20T02:54:56;101156.06;;;-1.56;100.00
13732;BME280;6937;56.096;12.664;2022-11-20T02:57:21;101152.66;;;-1.61;100.00
13732;BME280;6937;56.096;12.664;2022-11-20T02:59:47;101150.03;;;-1.61;100.00
13732;BME280;6937;56.096;12.664;2022-11-20T03:02:12;101144.84;;;-1.64;100.00
13732;BME280;6937;56.096;12.664;2022-11-20T03:04:37;101132.84;;;-1.77;100.00
13732;BME280;6937;56.096;12.664;2022-11-20T03:07:03;101162.31;;;-1.63;100.00
13732;BME280;6937;56.096;12.664;2022-11-20T03:09:29;101151.81;;;-1.65;100.00
13732;BME280;6937;56.096;12.664;2022-11-20T03:11:54;101166.66;;;-1.64;100.00
13732;BME280;6937;56.096;12.664;2022-11-20T03:14:20;101150.19;;;-1.70;100.00
13732;BME280;6937;56.096;12.664;2022-11-20T03:16:45;101148.44;;;-1.71;100.00
13732;BME280;6937;56.096;12.664;2022-11-20T03:19:12;101138.09;;;-1.79;100.00
13732;BME280;6937;56.096;12.664;2022-11-20T03:21:38;101161.50;;;-1.68;100.00
13732;BME280;6937;56.096;12.664;2022-11-20T03:24:04;101165.03;;;-1.69;100.00
13732;BME280;6937;56.096;12.664;2022-11-20T03:26:29;101164.22;;;-1.73;100.00
13732;BME280;6937;56.096;12.664;2022-11-20T03:28:57;101172.03;;;-1.71;100.00
13732;BME280;6937;56.096;12.664;2022-11-20T03:31:26;101164.22;;;-1.73;100.00
13732;BME280;6937;56.096;12.664;2022-11-20T03:33:52;101169.41;;;-1.71;100.00
13732;BME280;6937;56.096;12.664;2022-11-20T03:36:19;101158.13;;;-1.75;100.00
13732;BME280;6937;56.096;12.664;2022-11-20T03:38:44;101135.59;;;-1.86;100.00
13732;BME280;6937;56.096;12.664;2022-11-20T03:41:15;101158.16;;;-1.78;100.00
13732;BME280;6937;56.096;12.664;2022-11-20T03:43:41;101159.03;;;-1.77;100.00
13732;BME280;6937;56.096;12.664;2022-11-20T03:46:07;101148.63;;;-1.82;100.00
13732;BME280;6937;56.096;12.664;2022-11-20T03:48:33;101156.47;;;-1.80;100.00
13732;BME280;6937;56.096;12.664;2022-11-20T03:51:31;101164.22;;;-1.74;100.00
13732;BME280;6937;56.096;12.664;2022-11-20T03:53:59;101154.66;;;-1.77;100.00
13732;BME280;6937;56.096;12.664;2022-11-20T03:56:29;101151.25;;;-1.82;100.00
13732;BME280;6937;56.096;12.664;2022-11-20T03:58:56;101132.22;;;-1.93;100.00
13732;BME280;6937;56.096;12.664;2022-11-20T04:01:24;101159.94;;;-1.78;100.00
13732;BME280;6937;56.096;12.664;2022-11-20T04:03:52;101155.56;;;-1.79;100.00
13732;BME280;6937;56.096;12.664;2022-11-20T04:06:26;101157.34;;;-1.81;100.00
13732;BME280;6937;56.096;12.664;2022-11-20T04:08:54;101145.19;;;-1.85;100.00
13732;BME280;6937;56.096;12.664;2022-11-20T04:11:23;101146.97;;;-1.87;100.00
13732;BME280;6937;56.096;12.664;2022-11-20T04:13:55;101142.69;;;-1.93;100.00
13732;BME280;6937;56.096;12.664;2022-11-20T04:16:22;101137.56;;;-1.99;100.00
13732;BME280;6937;56.096;12.664;2022-11-20T04:18:55;101130.53;;;-1.97;100.00
13732;BME280;6937;56.096;12.664;2022-11-20T04:21:21;101126.28;;;-2.06;100.00
13732;BME280;6937;56.096;12.664;2022-11-20T04:23:48;101129.03;;;-2.13;100.00
13732;BME280;6937;56.096;12.664;2022-11-20T04:26:13;101139.38;;;-2.06;100.00
13732;BME280;6937;56.096;12.664;2022-11-20T04:28:39;101169.81;;;-1.96;100.00
13732;BME280;6937;56.096;12.664;2022-11-20T04:31:13;101162.00;;;-2.00;100.00
13732;BME280;6937;56.096;12.664;2022-11-20T04:33:39;101136.88;;;-2.12;100.00
13732;BME280;6937;56.096;12.664;2022-11-20T04:36:11;101168.06;;;-1.98;100.00
13732;BME280;6937;56.096;12.664;2022-11-20T04:38:37;101172.44;;;-1.97;100.00
13732;BME280;6937;56.096;12.664;2022-11-20T04:41:05;101171.56;;;-1.96;100.00
13732;BME280;6937;56.096;12.664;2022-11-20T04:43:32;101178.53;;;-1.97;100.00
13732;BME280;6937;56.096;12.664;2022-11-20T04:45:58;101175.06;;;-1.97;100.00
13732;BME280;6937;56.096;12.664;2022-11-20T04:48:25;101166.38;;;-2.01;100.00
13732;BME280;6937;56.096;12.664;2022-11-20T04:50:51;101156.94;;;-2.11;100.00
13732;BME280;6937;56.096;12.664;2022-11-20T04:53:16;101175.06;;;-1.99;100.00
13732;BME280;6937;56.096;12.664;2022-11-20T04:55:42;101146.47;;;-2.12;100.00
13732;BME280;6937;56.096;12.664;2022-11-20T04:58:07;101167.19;;;-1.97;100.00
13732;BME280;6937;56.096;12.664;2022-11-20T05:00:32;101160.28;;;-2.01;100.00
13732;BME280;6937;56.096;12.664;2022-11-20T05:02:58;101165.47;;;-1.98;100.00
13732;BME280;6937;56.096;12.664;2022-11-20T05:05:23;101174.16;;;-1.96;100.00
13732;BME280;6937;56.096;12.664;2022-11-20T05:07:48;101157.75;;;-2.07;100.00
13732;BME280;6937;56.096;12.664;2022-11-20T05:10:14;101165.50;;;-2.00;100.00
13732;BME280;6937;56.096;12.664;2022-11-20T05:12:40;101164.63;;;-2.02;100.00
13732;BME280;6937;56.096;12.664;2022-11-20T05:15:05;101164.63;;;-2.02;100.00
13732;BME280;6937;56.096;12.664;2022-11-20T05:17:31;101160.31;;;-2.04;100.00
13732;BME280;6937;56.096;12.664;2022-11-20T05:19:56;101165.56;;;-2.04;100.00
13732;BME280;6937;56.096;12.664;2022-11-20T05:22:22;101161.19;;;-2.05;100.00
13732;BME280;6937;56.096;12.664;2022-11-20T05:24:47;101161.25;;;-2.07;100.00
13732;BME280;6937;56.096;12.664;2022-11-20T05:27:13;101160.38;;;-2.09;100.00
13732;BME280;6937;56.096;12.664;2022-11-20T05:29:38;101165.59;;;-2.07;100.00
13732;BME280;6937;56.096;12.664;2022-11-20T05:32:04;101167.31;;;-2.06;100.00
13732;BME280;6937;56.096;12.664;2022-11-20T05:34:31;101156.06;;;-2.11;100.00
13732;BME280;6937;56.096;12.664;2022-11-20T05:36:56;101154.31;;;-2.12;100.00
13732;BME280;6937;56.096;12.664;2022-11-20T05:39:22;101162.22;;;-2.14;100.00
13732;BME280;6937;56.096;12.664;2022-11-20T05:41:47;101147.34;;;-2.13;100.00
13732;BME280;6937;56.096;12.664;2022-11-20T05:44:32;101157.00;;;-2.15;100.00
13732;BME280;6937;56.096;12.664;2022-11-20T05:46:58;101162.22;;;-2.15;100.00
13732;BME280;6937;56.096;12.664;2022-11-20T05:49:23;101154.44;;;-2.18;100.00
13732;BME280;6937;56.096;12.664;2022-11-20T05:51:48;101133.63;;;-2.29;100.00
13732;BME280;6937;56.096;12.664;2022-11-20T05:54:13;101158.75;;;-2.16;100.00
13732;BME280;6937;56.096;12.664;2022-11-20T05:56:39;101126.72;;;-2.36;100.00
13732;BME280;6937;56.096;12.664;2022-11-20T05:59:04;101153.63;;;-2.23;100.00
13732;BME280;6937;56.096;12.664;2022-11-20T06:01:29;101157.09;;;-2.24;100.00
13732;BME280;6937;56.096;12.664;2022-11-20T06:03:55;101146.63;;;-2.24;100.00
13732;BME280;6937;56.096;12.664;2022-11-20T06:06:20;101136.25;;;-2.29;100.00
13732;BME280;6937;56.096;12.664;2022-11-20T06:08:47;101135.50;;;-2.37;100.00
13732;BME280;6937;56.096;12.664;2022-11-20T06:11:13;101136.25;;;-2.29;100.00
13732;BME280;6937;56.096;12.664;2022-11-20T06:13:39;101146.69;;;-2.27;100.00
13732;BME280;6937;56.096;12.664;2022-11-20T06:16:05;101124.22;;;-2.42;100.00
13732;BME280;6937;56.096;12.664;2022-11-20T06:18:31;101121.59;;;-2.42;100.00
13732;BME280;6937;56.096;12.664;2022-11-20T06:21:01;101145.84;;;-2.29;100.00
13732;BME280;6937;56.096;12.664;2022-11-20T06:23:28;101138.94;;;-2.35;100.00
13732;BME280;6937;56.096;12.664;2022-11-20T06:25:54;101117.34;;;-2.49;100.00
13732;BME280;6937;56.096;12.664;2022-11-20T06:28:20;101134.66;;;-2.40;100.00
13732;BME280;6937;56.096;12.664;2022-11-20T06:30:45;101153.75;;;-2.34;100.00
13732;BME280;6937;56.096;12.664;2022-11-20T06:33:11;101157.22;;;-2.32;100.00
13732;BME280;6937;56.096;12.664;2022-11-20T06:35:36;101154.59;;;-2.32;100.00
13732;BME280;6937;56.096;12.664;2022-11-20T06:38:01;101158.09;;;-2.31;100.00
13732;BME280;6937;56.096;12.664;2022-11-20T06:40:27;101149.41;;;-2.33;100.00
13732;BME280;6937;56.096;12.664;2022-11-20T06:42:53;101157.22;;;-2.32;100.00
13732;BME280;6937;56.096;12.664;2022-11-20T06:45:20;101132.06;;;-2.42;100.00
13732;BME280;6937;56.096;12.664;2022-11-20T06:47:45;101148.53;;;-2.34;100.00
13732;BME280;6937;56.096;12.664;2022-11-20T06:50:10;101124.25;;;-2.47;100.00
13732;BME280;6937;56.096;12.664;2022-11-20T06:52:36;101114.72;;;-2.49;100.00
13732;BME280;6937;56.096;12.664;2022-11-20T06:55:01;101138.88;;;-2.30;100.00
13732;BME280;6937;56.096;12.664;2022-11-20T06:57:27;101145.91;;;-2.35;100.00
13732;BME280;6937;56.096;12.664;2022-11-20T06:59:52;101158.06;;;-2.30;100.00
13732;BME280;6937;56.096;12.664;2022-11-20T07:02:17;101147.66;;;-2.33;100.00
13732;BME280;6937;56.096;12.664;2022-11-20T07:04:43;101165.88;;;-2.27;100.00
13732;BME280;6937;56.096;12.664;2022-11-20T07:07:08;101132.84;;;-2.35;100.00
13732;BME280;6937;56.096;12.664;2022-11-20T07:09:33;101154.50;;;-2.24;100.00
13732;BME280;6937;56.096;12.664;2022-11-20T07:11:59;101156.25;;;-2.25;100.00
13732;BME280;6937;56.096;12.664;2022-11-20T07:14:24;101159.72;;;-2.21;100.00
13732;BME280;6937;56.096;12.664;2022-11-20T07:16:49;101164.03;;;-2.20;100.00
13732;BME280;6937;56.096;12.664;2022-11-20T07:19:15;101134.53;;;-2.31;100.00
13732;BME280;6937;56.096;12.664;2022-11-20T07:21:40;101163.16;;;-2.18;100.00
13732;BME280;6937;56.096;12.664;2022-11-20T07:24:06;101165.78;;;-2.19;100.00
13732;BME280;6937;56.096;12.664;2022-11-20T07:26:31;101170.97;;;-2.16;100.00
13732;BME280;6937;56.096;12.664;2022-11-20T07:28:56;101175.28;;;-2.12;100.00
13732;BME280;6937;56.096;12.664;2022-11-20T07:31:22;101168.38;;;-2.19;100.00
13732;BME280;6937;56.096;12.664;2022-11-20T07:33:47;101156.22;;;-2.22;100.00
13732;BME280;6937;56.096;12.664;2022-11-20T07:36:13;101183.03;;;-2.06;100.00
13732;BME280;6937;56.096;12.664;2022-11-20T07:38:38;101186.50;;;-2.04;100.00
13732;BME280;6937;56.096;12.664;2022-11-20T07:41:04;101188.16;;;-1.97;100.00
13732;BME280;6937;56.096;12.664;2022-11-20T07:43:29;101186.41;;;-1.97;100.00
13732;BME280;6937;56.096;12.664;2022-11-20T07:45:56;101188.09;;;-1.94;100.00
13732;BME280;6937;56.096;12.664;2022-11-20T07:48:22;101168.00;;;-1.93;100.00
13732;BME280;6937;56.096;12.664;2022-11-20T07:50:47;101180.19;;;-1.89;100.00
13732;BME280;6937;56.096;12.664;2022-11-20T07:53:12;101162.00;;;-2.00;100.00
13732;BME280;6937;56.096;12.664;2022-11-20T07:55:39;101176.69;;;-1.88;100.00
13732;BME280;6937;56.096;12.664;2022-11-20T07:58:04;101176.63;;;-1.84;100.00
13732;BME280;6937;56.096;12.664;2022-11-20T08:00:30;101180.06;;;-1.82;100.00
13732;BME280;6937;56.096;12.664;2022-11-20T08:02:55;101169.59;;;-1.83;100.00
13732;BME280;6937;56.096;12.664;2022-11-20T08:05:21;101170.53;;;-1.86;100.00
13732;BME280;6937;56.096;12.664;2022-11-20T08:07:47;101176.50;;;-1.78;100.00
13732;BME280;6937;56.096;12.664;2022-11-20T08:10:14;101176.50;;;-1.76;100.00
13732;BME280;6937;56.096;12.664;2022-11-20T08:12:48;101172.97;;;-1.75;100.00
13732;BME280;6937;56.096;12.664;2022-11-20T08:15:33;101172.06;;;-1.73;100.00
13732;BME280;6937;56.096;12.664;2022-11-20T08:18:09;101179.81;;;-1.67;100.00
13732;BME280;6937;56.096;12.664;2022-11-20T08:20:36;101174.53;;;-1.62;100.00
13732;BME280;6937;56.096;12.664;2022-11-20T08:23:04;101152.75;;;-1.67;100.00
13732;BME280;6937;56.096;12.664;2022-11-20T08:25:31;101183.03;;;-1.50;100.00
13732;BME280;6937;56.096;12.664;2022-11-20T08:27:58;101181.22;;;-1.44;100.00
13732;BME280;6937;56.096;12.664;2022-11-20T08:30:23;101171.66;;;-1.47;100.00
13732;BME280;6937;56.096;12.664;2022-11-20T08:32:49;101175.00;;;-1.39;100.00
13732;BME280;6937;56.096;12.664;2022-11-20T08:35:14;101196.56;;;-1.23;100.00
13732;BME280;6937;56.096;12.664;2022-11-20T08:37:40;101177.41;;;-1.27;100.00
13732;BME280;6937;56.096;12.664;2022-11-20T08:40:09;101188.53;;;-1.14;100.00
13732;BME280;6937;56.096;12.664;2022-11-20T08:42:35;101193.66;;;-1.08;100.00
13732;BME280;6937;56.096;12.664;2022-11-20T08:45:00;101181.41;;;-1.06;100.00
13732;BME280;6937;56.096;12.664;2022-11-20T08:47:25;101177.94;;;-1.08;100.00
13732;BME280;6937;56.096;12.664;2022-11-20T08:49:51;101185.66;;;-1.01;100.00
13732;BME280;6937;56.096;12.664;2022-11-20T08:52:16;101162.25;;;-1.10;100.00
13732;BME280;6937;56.096;12.664;2022-11-20T08:54:41;101172.47;;;-0.94;100.00
13732;BME280;6937;56.096;12.664;2022-11-20T08:57:07;101143.84;;;-1.08;100.00
13732;BME280;6937;56.096;12.664;2022-11-20T08:59:32;101168.91;;;-0.92;100.00
13732;BME280;6937;56.096;12.664;2022-11-20T09:01:57;101161.09;;;-0.97;100.00
13732;BME280;6937;56.096;12.664;2022-11-20T09:04:23;101162.69;;;-0.88;100.00
13732;BME280;6937;56.096;12.664;2022-11-20T09:06:49;101150.47;;;-0.87;100.00
13732;BME280;6937;56.096;12.664;2022-11-20T09:09:16;101153.81;;;-0.82;100.00
13732;BME280;6937;56.096;12.664;2022-11-20T09:11:42;101147.75;;;-0.83;100.00
13732;BME280;6937;56.096;12.664;2022-11-20T09:14:08;101118.97;;;-0.87;100.00
13732;BME280;6937;56.096;12.664;2022-11-20T09:16:33;101112.72;;;-0.82;100.00
13732;BME280;6937;56.096;12.664;2022-11-20T09:18:58;101095.31;;;-0.86;100.00
13732;BME280;6937;56.096;12.664;2022-11-20T09:21:24;101098.56;;;-0.75;100.00
13732;BME280;6937;56.096;12.664;2022-11-20T09:23:49;101087.19;;;-0.74;100.00
13732;BME280;6937;56.096;12.664;2022-11-20T09:26:15;101073.25;;;-0.76;100.00
13732;BME280;6937;56.096;12.664;2022-11-20T09:28:40;101048.06;;;-0.83;100.00
13732;BME280;6937;56.096;12.664;2022-11-20T09:31:07;101040.91;;;-0.76;100.00
13732;BME280;6937;56.096;12.664;2022-11-20T09:33:33;101065.09;;;-0.64;100.00
13732;BME280;6937;56.096;12.664;2022-11-20T09:36:00;101034.72;;;-0.74;100.00
13732;BME280;6937;56.096;12.664;2022-11-20T09:38:25;101036.19;;;-0.62;100.00
13732;BME280;6937;56.096;12.664;2022-11-20T09:41:05;101017.91;;;-0.65;100.00
13732;BME280;6937;56.096;12.664;2022-11-20T09:43:46;101019.50;;;-0.60;100.00
13732;BME280;6937;56.096;12.664;2022-11-20T09:52:16;101009.72;;;-0.52;100.00
13732;BME280;6937;56.096;12.664;2022-11-20T09:54:45;101018.25;;;-0.42;100.00
13732;BME280;6937;56.096;12.664;2022-11-20T09:57:13;101030.28;;;-0.33;100.00
13732;BME280;6937;56.096;12.664;2022-11-20T09:59:42;101012.75;;;-0.31;100.00
13732;BME280;6937;56.096;12.664;2022-11-20T10:02:48;100991.88;;;-0.37;100.00
13732;BME280;6937;56.096;12.664;2022-11-20T10:05:25;100990.00;;;-0.32;100.00
13732;BME280;6937;56.096;12.664;2022-11-20T10:08:11;100996.88;;;-0.27;100.00
13732;BME280;6937;56.096;12.664;2022-11-20T10:10:47;100988.09;;;-0.26;100.00
13732;BME280;6937;56.096;12.664;2022-11-20T10:13:23;100998.38;;;-0.17;100.00
13732;BME280;6937;56.096;12.664;2022-11-20T10:19:10;100982.50;;;-0.12;100.00
13732;BME280;6937;56.096;12.664;2022-11-20T10:21:55;100989.31;;;-0.05;100.00
13732;BME280;6937;56.096;12.664;2022-11-20T10:28:02;100978.53;;;0.06;100.00
13732;BME280;6937;56.096;12.664;2022-11-20T10:30:15;100932.50;;;-0.09;100.00
13732;BME280;6937;56.096;12.664;2022-11-20T10:32:59;100973.09;;;0.13;100.00
13732;BME280;6937;56.096;12.664;2022-11-20T10:35:35;100981.56;;;0.23;100.00
13732;BME280;6937;56.096;12.664;2022-11-20T10:38:07;100976.16;;;0.29;100.00
13732;BME280;6937;56.096;12.664;2022-11-20T10:40:38;100980.38;;;0.34;100.00
13732;BME280;6937;56.096;12.664;2022-11-20T10:43:13;100974.91;;;0.42;100.00
13732;BME280;6937;56.096;12.664;2022-11-20T10:45:47;100945.41;;;0.32;100.00
13732;BME280;6937;56.096;12.664;2022-11-20T10:48:19;100978.06;;;0.56;100.00
13732;BME280;6937;56.096;12.664;2022-11-20T10:51:52;100976.97;;;0.63;100.00
13732;BME280;6937;56.096;12.664;2022-11-20T10:56:47;100971.22;;;0.80;100.00
13732;BME280;6937;56.096;12.664;2022-11-20T11:02:14;100951.78;;;0.85;100.00
13732;BME280;6937;56.096;12.664;2022-11-20T11:04:46;100939.47;;;0.86;100.00
13732;BME280;6937;56.096;12.664;2022-11-20T11:07:25;100939.25;;;0.93;100.00
13732;BME280;6937;56.096;12.664;2022-11-20T11:09:54;100928.56;;;0.98;100.00
13732;BME280;6937;56.096;12.664;2022-11-20T11:12:25;100937.97;;;1.07;100.00
13732;BME280;6937;56.096;12.664;2022-11-20T11:14:56;100923.81;;;1.09;100.00
13732;BME280;6937;56.096;12.664;2022-11-20T11:17:30;100916.66;;;1.14;100.00
13732;BME280;6937;56.096;12.664;2022-11-20T11:20:15;100918.97;;;1.25;100.00
13732;BME280;6937;56.096;12.664;2022-11-20T11:22:49;100917.91;;;1.30;100.00
13732;BME280;6937;56.096;12.664;2022-11-20T11:25:28;100919.34;;;1.40;100.00
13732;BME280;6937;56.096;12.664;2022-11-20T11:27:55;100953.69;;;1.64;100.00
13732;BME280;6937;56.096;12.664;2022-11-20T11:30:23;100927.19;;;1.68;100.00
13732;BME280;6937;56.096;12.664;2022-11-20T11:32:48;100956.44;;;1.87;100.00
13732;BME280;6937;56.096;12.664;2022-11-20T11:35:25;100954.06;;;2.04;100.00
13732;BME280;6937;56.096;12.664;2022-11-20T11:37:54;100948.41;;;2.15;100.00
13732;BME280;6937;56.096;12.664;2022-11-20T11:40:26;100918.56;;;2.14;100.00
13732;BME280;6937;56.096;12.664;2022-11-20T11:42:58;100941.47;;;2.37;100.00
13732;BME280;6937;56.096;12.664;2022-11-20T11:45:24;100899.38;;;2.34;100.00
13732;BME280;6937;56.096;12.664;2022-11-20T11:47:51;100937.13;;;2.59;100.00
13732;BME280;6937;56.096;12.664;2022-11-20T11:50:21;100884.00;;;2.47;100.00
13732;BME280;6937;56.096;12.664;2022-11-20T11:55:31;100889.19;;;2.71;100.00
13732;BME280;6937;56.096;12.664;2022-11-20T11:58:21;100893.72;;;2.91;100.00
13732;BME280;6937;56.096;12.664;2022-11-20T12:00:56;100892.28;;;3.04;100.00
13732;BME280;6937;56.096;12.664;2022-11-20T12:03:35;100869.53;;;3.02;100.00
13732;BME280;6937;56.096;12.664;2022-11-20T12:06:18;100871.56;;;3.17;100.00
13732;BME280;6937;56.096;12.664;2022-11-20T12:08:52;100852.75;;;3.24;100.00
13732;BME280;6937;56.096;12.664;2022-11-20T12:11:38;100852.91;;;3.41;100.00
13732;BME280;6937;56.096;12.664;2022-11-20T12:17:11;100840.50;;;3.64;100.00
13732;BME280;6937;56.096;12.664;2022-11-20T12:19:37;100863.06;;;3.93;100.00
13732;BME280;6937;56.096;12.664;2022-11-20T12:22:33;100863.75;;;4.16;100.00
13732;BME280;6937;56.096;12.664;2022-11-20T12:25:32;100903.97;;;4.63;100.00
13732;BME280;6937;56.096;12.664;2022-11-20T12:30:55;100979.09;;;5.73;100.00
13732;BME280;6937;56.096;12.664;2022-11-20T12:39:00;100864.97;;;6.59;100.00
13732;BME280;6937;56.096;12.664;2022-11-20T12:50:22;100838.47;;;7.36;100.00
13732;BME280;6937;56.096;12.664;2022-11-20T12:52:54;100838.25;;;7.54;100.00
13732;BME280;6937;56.096;12.664;2022-11-20T12:55:36;100837.72;;;7.63;100.00
13732;BME280;6937;56.096;12.664;2022-11-20T13:00:56;100819.84;;;7.65;100.00
13732;BME280;6937;56.096;12.664;2022-11-20T13:03:41;100745.88;;;7.28;100.00
13732;BME280;6937;56.096;12.664;2022-11-20T13:06:16;100752.53;;;7.05;100.00
13732;BME280;6937;56.096;12.664;2022-11-20T13:08:54;100796.97;;;7.33;100.00
13732;BME280;6937;56.096;12.664;2022-11-20T13:19:12;100823.31;;;7.82;100.00
13732;BME280;6937;56.096;12.664;2022-11-20T13:21:43;100823.69;;;7.75;100.00
13732;BME280;6937;56.096;12.664;2022-11-20T13:29:26;100916.22;;;8.30;100.00
13732;BME280;6937;56.096;12.664;2022-11-20T13:32:02;100885.06;;;8.32;100.00
13732;BME280;6937;56.096;12.664;2022-11-20T13:34:28;100894.53;;;8.36;100.00
13732;BME280;6937;56.096;12.664;2022-11-20T13:36:57;100860.91;;;8.05;100.00
13732;BME280;6937;56.096;12.664;2022-11-20T13:39:26;100896.47;;;8.18;100.00
13732;BME280;6937;56.096;12.664;2022-11-20T13:41:56;100887.34;;;8.08;100.00
13732;BME280;6937;56.096;12.664;2022-11-20T13:44:27;100906.09;;;8.21;100.00
13732;BME280;6937;56.096;12.664;2022-11-20T13:46:54;100926.94;;;8.29;100.00
13732;BME280;6937;56.096;12.664;2022-11-20T13:49:32;100880.56;;;8.03;100.00
13732;BME280;6937;56.096;12.664;2022-11-20T13:54:36;100906.63;;;7.98;100.00